sensor_id;sensor_type;location;lat;lon;timestamp;pressure;altitude;pressure_sealevel;temperature;humidity
29247;BME280;16272;48.188;9.964;2023-04-28T00:01:12;95701.94;;;9.01;74.90
29247;BME280;16272;48.188;9.964;2023-04-28T00:03:37;95688.13;;;9.08;74.08
29247;BME280;16272;48.188;9.964;2023-04-28T00:06:03;95689.63;;;8.82;73.55
29247;BME280;16272;48.188;9.964;2023-04-28T00:08:29;95692.03;;;8.56;75.65
29247;BME280;16272;48.188;9.964;2023-04-28T00:10:54;95694.53;;;8.68;74.83
29247;BME280;16272;48.188;9.964;2023-04-28T00:13:19;95692.69;;;8.78;74.91
29247;BME280;16272;48.188;9.964;2023-04-28T00:15:45;95685.78;;;9.05;73.63
29247;BME280;16272;48.188;9.964;2023-04-28T00:18:11;95687.59;;;9.04;74.08
29247;BME280;16272;48.188;9.964;2023-04-28T00:20:36;95684.41;;;9.00;75.15
29247;BME280;16272;48.188;9.964;2023-04-28T00:23:02;95695.13;;;9.09;75.59
29247;BME280;16272;48.188;9.964;2023-04-28T00:25:27;95692.16;;;8.64;76.51
29247;BME280;16272;48.188;9.964;2023-04-28T00:27:53;95689.06;;;8.79;75.63
29247;BME280;16272;48.188;9.964;2023-04-28T00:30:18;95688.25;;;9.16;74.74
29247;BME280;16272;48.188;9.964;2023-04-28T00:32:44;95692.25;;;9.30;73.68
29247;BME280;16272;48.188;9.964;2023-04-28T00:35:09;95688.06;;;9.27;73.66
29247;BME280;16272;48.188;9.964;2023-04-28T00:37:36;95683.53;;;9.10;74.37
29247;BME280;16272;48.188;9.964;2023-04-28T00:40:01;95674.38;;;8.94;75.35
29247;BME280;16272;48.188;9.964;2023-04-28T00:42:26;95655.34;;;9.18;74.55
29247;BME280;16272;48.188;9.964;2023-04-28T00:44:52;95647.53;;;9.17;75.75
29247;BME280;16272;48.188;9.964;2023-04-28T00:47:17;95649.31;;;9.16;74.92
29247;BME280;16272;48.188;9.964;2023-04-28T00:49:43;95656.78;;;9.31;75.39
29247;BME280;16272;48.188;9.964;2023-04-28T00:52:09;95651.63;;;9.29;75.93
29247;BME280;16272;48.188;9.964;2023-04-28T00:54:35;95656.56;;;9.24;76.03
29247;BME280;16272;48.188;9.964;2023-04-28T00:57:02;95659.50;;;9.21;76.01
29247;BME280;16272;48.188;9.964;2023-04-28T00:59:30;95657.56;;;9.23;75.28
29247;BME280;16272;48.188;9.964;2023-04-28T01:01:56;95656.63;;;9.60;74.14
29247;BME280;16272;48.188;9.964;2023-04-28T01:04:22;95651.78;;;9.73;73.57
29247;BME280;16272;48.188;9.964;2023-04-28T01:06:48;95646.19;;;9.77;73.88
29247;BME280;16272;48.188;9.964;2023-04-28T01:09:15;95642.44;;;9.79;73.19
29247;BME280;16272;48.188;9.964;2023-04-28T01:11:41;95646.19;;;9.77;72.58
29247;BME280;16272;48.188;9.964;2023-04-28T01:14:06;95643.19;;;9.44;74.33
29247;BME280;16272;48.188;9.964;2023-04-28T01:16:32;95641.69;;;9.59;74.10
29247;BME280;16272;48.188;9.964;2023-04-28T01:18:59;95630.53;;;9.37;74.91
29247;BME280;16272;48.188;9.964;2023-04-28T01:21:27;95635.34;;;9.52;74.76
29247;BME280;16272;48.188;9.964;2023-04-28T01:23:58;95631.16;;;9.31;75.70
29247;BME280;16272;48.188;9.964;2023-04-28T01:26:24;95629.56;;;9.11;76.24
29247;BME280;16272;48.188;9.964;2023-04-28T01:28:49;95628.63;;;9.02;76.59
29247;BME280;16272;48.188;9.964;2023-04-28T01:31:15;95625.22;;;9.10;77.08
29247;BME280;16272;48.188;9.964;2023-04-28T01:33:40;95619.69;;;9.03;76.46
29247;BME280;16272;48.188;9.964;2023-04-28T01:36:06;95619.34;;;9.16;77.29
29247;BME280;16272;48.188;9.964;2023-04-28T01:38:31;95612.41;;;9.33;75.32
29247;BME280;16272;48.188;9.964;2023-04-28T01:40:58;95616.72;;;9.16;75.17
29247;BME280;16272;48.188;9.964;2023-04-28T01:43:23;95617.28;;;9.37;74.42
29247;BME280;16272;48.188;9.964;2023-04-28T01:45:48;95612.59;;;9.31;75.29
29247;BME280;16272;48.188;9.964;2023-04-28T01:48:14;95617.16;;;9.57;75.26
29247;BME280;16272;48.188;9.964;2023-04-28T01:50:39;95622.47;;;9.57;73.16
29247;BME280;16272;48.188;9.964;2023-04-28T01:53:05;95616.09;;;9.50;74.61
29247;BME280;16272;48.188;9.964;2023-04-28T01:55:30;95619.44;;;9.52;74.96
29247;BME280;16272;48.188;9.964;2023-04-28T01:57:55;95618.47;;;9.71;75.60
29247;BME280;16272;48.188;9.964;2023-04-28T02:00:22;95617.63;;;9.70;74.31
29247;BME280;16272;48.188;9.964;2023-04-28T02:02:47;95618.06;;;9.48;74.90
29247;BME280;16272;48.188;9.964;2023-04-28T02:05:13;95614.59;;;9.65;75.19
29247;BME280;16272;48.188;9.964;2023-04-28T02:07:38;95612.47;;;9.87;73.48
29247;BME280;16272;48.188;9.964;2023-04-28T02:10:04;95601.03;;;9.68;75.47
29247;BME280;16272;48.188;9.964;2023-04-28T02:12:29;95603.53;;;9.70;75.80
29247;BME280;16272;48.188;9.964;2023-04-28T02:14:55;95601.34;;;9.65;75.06
29247;BME280;16272;48.188;9.964;2023-04-28T02:17:20;95607.31;;;9.67;76.05
29247;BME280;16272;48.188;9.964;2023-04-28T02:19:46;95598.84;;;9.82;74.88
29247;BME280;16272;48.188;9.964;2023-04-28T02:22:11;95599.75;;;9.72;75.24
29247;BME280;16272;48.188;9.964;2023-04-28T02:24:36;95592.63;;;9.73;76.85
29247;BME280;16272;48.188;9.964;2023-04-28T02:27:03;95595.13;;;9.92;74.76
29247;BME280;16272;48.188;9.964;2023-04-28T02:29:30;95598.44;;;9.94;74.84
29247;BME280;16272;48.188;9.964;2023-04-28T02:31:56;95596.84;;;9.84;74.78
29247;BME280;16272;48.188;9.964;2023-04-28T02:34:21;95591.09;;;9.88;74.36
29247;BME280;16272;48.188;9.964;2023-04-28T02:36:46;95597.31;;;9.61;75.51
29247;BME280;16272;48.188;9.964;2023-04-28T02:39:12;95597.63;;;9.76;75.77
29247;BME280;16272;48.188;9.964;2023-04-28T02:41:38;95601.47;;;10.00;74.75
29247;BME280;16272;48.188;9.964;2023-04-28T02:44:03;95604.59;;;9.95;73.99
29247;BME280;16272;48.188;9.964;2023-04-28T02:46:28;95593.66;;;9.98;74.26
29247;BME280;16272;48.188;9.964;2023-04-28T02:48:55;95601.09;;;9.94;74.01
29247;BME280;16272;48.188;9.964;2023-04-28T02:51:20;95604.19;;;10.08;72.93
29247;BME280;16272;48.188;9.964;2023-04-28T02:53:45;95605.44;;;10.14;72.35
29247;BME280;16272;48.188;9.964;2023-04-28T02:56:11;95600.34;;;10.02;73.80
29247;BME280;16272;48.188;9.964;2023-04-28T02:58:36;95600.06;;;10.05;74.22
29247;BME280;16272;48.188;9.964;2023-04-28T03:01:01;95597.47;;;10.14;73.36
29247;BME280;16272;48.188;9.964;2023-04-28T03:03:27;95591.88;;;9.81;74.36
29247;BME280;16272;48.188;9.964;2023-04-28T03:05:52;95591.03;;;9.80;74.70
29247;BME280;16272;48.188;9.964;2023-04-28T03:08:17;95591.56;;;9.48;76.52
29247;BME280;16272;48.188;9.964;2023-04-28T03:10:45;95584.13;;;9.51;77.95
29247;BME280;16272;48.188;9.964;2023-04-28T03:13:10;95584.81;;;9.53;77.72
29247;BME280;16272;48.188;9.964;2023-04-28T03:15:35;95581.66;;;9.68;77.40
29247;BME280;16272;48.188;9.964;2023-04-28T03:18:01;95580.69;;;9.23;77.51
29247;BME280;16272;48.188;9.964;2023-04-28T03:20:26;95577.38;;;9.39;77.60
29247;BME280;16272;48.188;9.964;2023-04-28T03:22:52;95577.25;;;9.77;76.17
29247;BME280;16272;48.188;9.964;2023-04-28T03:25:17;95579.00;;;9.86;75.57
29247;BME280;16272;48.188;9.964;2023-04-28T03:27:42;95572.00;;;9.85;76.07
29247;BME280;16272;48.188;9.964;2023-04-28T03:30:08;95575.19;;;9.70;76.95
29247;BME280;16272;48.188;9.964;2023-04-28T03:32:34;95563.84;;;9.60;77.12
29247;BME280;16272;48.188;9.964;2023-04-28T03:35:00;95577.25;;;9.77;76.95
29247;BME280;16272;48.188;9.964;2023-04-28T03:37:25;95574.06;;;9.91;76.13
29247;BME280;16272;48.188;9.964;2023-04-28T03:39:51;95570.66;;;9.99;74.85
29247;BME280;16272;48.188;9.964;2023-04-28T03:42:16;95570.22;;;10.11;75.02
29247;BME280;16272;48.188;9.964;2023-04-28T03:44:41;95580.47;;;10.06;74.70
29247;BME280;16272;48.188;9.964;2023-04-28T03:47:07;95585.91;;;10.23;74.13
29247;BME280;16272;48.188;9.964;2023-04-28T03:49:32;95580.78;;;10.03;74.90
29247;BME280;16272;48.188;9.964;2023-04-28T03:51:57;95584.19;;;10.14;73.76
29247;BME280;16272;48.188;9.964;2023-04-28T03:54:23;95590.91;;;10.26;73.43
29247;BME280;16272;48.188;9.964;2023-04-28T03:56:48;95594.59;;;9.89;75.16
29247;BME280;16272;48.188;9.964;2023-04-28T03:59:13;95600.06;;;10.05;74.03
29247;BME280;16272;48.188;9.964;2023-04-28T04:01:42;95607.50;;;10.28;73.20
29247;BME280;16272;48.188;9.964;2023-04-28T04:04:07;95602.28;;;10.18;75.43
29247;BME280;16272;48.188;9.964;2023-04-28T04:06:32;95605.72;;;10.10;75.86
29247;BME280;16272;48.188;9.964;2023-04-28T04:08:59;95607.13;;;10.23;75.68
29247;BME280;16272;48.188;9.964;2023-04-28T04:11:24;95614.56;;;10.19;75.38
29247;BME280;16272;48.188;9.964;2023-04-28T04:13:49;95617.59;;;10.42;74.45
29247;BME280;16272;48.188;9.964;2023-04-28T04:16:15;95614.59;;;10.37;75.17
29247;BME280;16272;48.188;9.964;2023-04-28T04:18:40;95611.63;;;10.40;74.75
29247;BME280;16272;48.188;9.964;2023-04-28T04:21:06;95607.94;;;10.33;75.43
29247;BME280;16272;48.188;9.964;2023-04-28T04:23:31;95611.69;;;10.48;73.93
29247;BME280;16272;48.188;9.964;2023-04-28T04:25:56;95619.28;;;10.25;76.23
29247;BME280;16272;48.188;9.964;2023-04-28T04:28:22;95611.25;;;10.35;75.33
29247;BME280;16272;48.188;9.964;2023-04-28T04:30:47;95607.84;;;10.43;75.26
29247;BME280;16272;48.188;9.964;2023-04-28T04:33:12;95606.16;;;10.42;75.13
29247;BME280;16272;48.188;9.964;2023-04-28T04:35:37;95595.53;;;10.42;74.62
29247;BME280;16272;48.188;9.964;2023-04-28T04:38:03;95597.78;;;10.10;76.53
29247;BME280;16272;48.188;9.964;2023-04-28T04:40:29;95597.03;;;10.44;75.51
29247;BME280;16272;48.188;9.964;2023-04-28T04:42:54;95590.31;;;10.14;76.71
29247;BME280;16272;48.188;9.964;2023-04-28T04:45:19;95591.06;;;10.24;76.39
29247;BME280;16272;48.188;9.964;2023-04-28T04:47:45;95589.72;;;10.38;75.31
29247;BME280;16272;48.188;9.964;2023-04-28T04:50:11;95595.75;;;10.48;75.85
29247;BME280;16272;48.188;9.964;2023-04-28T04:52:36;95601.88;;;10.31;77.17
29247;BME280;16272;48.188;9.964;2023-04-28T04:55:03;95605.84;;;10.27;77.42
29247;BME280;16272;48.188;9.964;2023-04-28T04:57:29;95613.31;;;10.23;76.80
29247;BME280;16272;48.188;9.964;2023-04-28T04:59:54;95607.19;;;10.49;75.92
29247;BME280;16272;48.188;9.964;2023-04-28T05:02:19;95611.63;;;10.40;77.26
29247;BME280;16272;48.188;9.964;2023-04-28T05:04:45;95608.47;;;10.63;76.55
29247;BME280;16272;48.188;9.964;2023-04-28T05:07:10;95596.03;;;10.72;75.35
29247;BME280;16272;48.188;9.964;2023-04-28T05:09:35;95590.41;;;10.75;75.11
29247;BME280;16272;48.188;9.964;2023-04-28T05:12:01;95594.06;;;10.74;75.59
29247;BME280;16272;48.188;9.964;2023-04-28T05:14:26;95599.06;;;10.77;75.85
29247;BME280;16272;48.188;9.964;2023-04-28T05:16:51;95602.44;;;10.53;77.69
29247;BME280;16272;48.188;9.964;2023-04-28T05:19:17;95591.91;;;10.69;76.84
29247;BME280;16272;48.188;9.964;2023-04-28T05:21:42;95598.97;;;10.60;77.37
29247;BME280;16272;48.188;9.964;2023-04-28T05:24:07;95607.88;;;10.77;76.69
29247;BME280;16272;48.188;9.964;2023-04-28T05:26:33;95603.56;;;10.50;79.36
29247;BME280;16272;48.188;9.964;2023-04-28T05:28:58;95607.72;;;10.53;78.12
29247;BME280;16272;48.188;9.964;2023-04-28T05:31:23;95593.59;;;10.52;81.33
29247;BME280;16272;48.188;9.964;2023-04-28T05:33:49;95597.81;;;10.37;81.77
29247;BME280;16272;48.188;9.964;2023-04-28T05:36:14;95591.56;;;10.46;81.63
29247;BME280;16272;48.188;9.964;2023-04-28T05:38:42;95579.28;;;10.71;82.14
29247;BME280;16272;48.188;9.964;2023-04-28T05:41:07;95581.50;;;10.84;80.46
29247;BME280;16272;48.188;9.964;2023-04-28T05:43:32;95576.97;;;10.76;82.00
29247;BME280;16272;48.188;9.964;2023-04-28T05:45:58;95576.09;;;10.94;83.14
29247;BME280;16272;48.188;9.964;2023-04-28T05:48:23;95572.28;;;11.04;83.32
29247;BME280;16272;48.188;9.964;2023-04-28T05:50:48;95571.13;;;10.99;83.78
29247;BME280;16272;48.188;9.964;2023-04-28T05:53:14;95569.03;;;11.19;82.75
29247;BME280;16272;48.188;9.964;2023-04-28T05:55:39;95565.06;;;10.89;84.99
29247;BME280;16272;48.188;9.964;2023-04-28T05:58:05;95564.53;;;11.19;84.67
29247;BME280;16272;48.188;9.964;2023-04-28T06:00:31;95565.53;;;11.18;84.23
29247;BME280;16272;48.188;9.964;2023-04-28T06:02:58;95561.53;;;11.14;83.88
29247;BME280;16272;48.188;9.964;2023-04-28T06:05:23;95563.63;;;11.45;83.09
29247;BME280;16272;48.188;9.964;2023-04-28T06:07:48;95568.28;;;11.43;82.68
29247;BME280;16272;48.188;9.964;2023-04-28T06:10:14;95569.94;;;11.61;82.72
29247;BME280;16272;48.188;9.964;2023-04-28T06:12:39;95564.81;;;11.67;82.45
29247;BME280;16272;48.188;9.964;2023-04-28T06:15:05;95564.47;;;11.54;82.76
29247;BME280;16272;48.188;9.964;2023-04-28T06:17:31;95562.94;;;11.35;83.88
29247;BME280;16272;48.188;9.964;2023-04-28T06:19:57;95561.50;;;11.65;82.99
29247;BME280;16272;48.188;9.964;2023-04-28T06:22:24;95562.09;;;11.43;84.08
29247;BME280;16272;48.188;9.964;2023-04-28T06:24:49;95556.25;;;11.31;85.49
29247;BME280;16272;48.188;9.964;2023-04-28T06:27:15;95560.97;;;11.45;84.58
29247;BME280;16272;48.188;9.964;2023-04-28T06:29:40;95561.50;;;11.65;85.11
29247;BME280;16272;48.188;9.964;2023-04-28T06:32:05;95567.34;;;12.10;82.84
29247;BME280;16272;48.188;9.964;2023-04-28T06:34:31;95567.31;;;11.69;82.84
29247;BME280;16272;48.188;9.964;2023-04-28T06:37:00;95581.28;;;11.63;82.54
29247;BME280;16272;48.188;9.964;2023-04-28T06:39:26;95581.75;;;11.58;84.12
29247;BME280;16272;48.188;9.964;2023-04-28T06:41:51;95582.31;;;11.86;82.14
29247;BME280;16272;48.188;9.964;2023-04-28T06:44:17;95575.09;;;11.54;84.30
29247;BME280;16272;48.188;9.964;2023-04-28T06:46:42;95557.09;;;11.31;84.96
29247;BME280;16272;48.188;9.964;2023-04-28T06:49:07;95551.59;;;11.33;85.47
29247;BME280;16272;48.188;9.964;2023-04-28T06:51:33;95552.63;;;11.40;84.74
29247;BME280;16272;48.188;9.964;2023-04-28T06:53:58;95553.63;;;11.47;85.45
29247;BME280;16272;48.188;9.964;2023-04-28T06:56:24;95552.34;;;11.59;84.04
29247;BME280;16272;48.188;9.964;2023-04-28T06:58:49;95548.84;;;11.67;83.96
29247;BME280;16272;48.188;9.964;2023-04-28T07:01:15;95546.88;;;11.61;85.15
29247;BME280;16272;48.188;9.964;2023-04-28T07:03:41;95543.69;;;11.74;83.47
29247;BME280;16272;48.188;9.964;2023-04-28T07:06:06;95543.03;;;11.88;82.44
29247;BME280;16272;48.188;9.964;2023-04-28T07:08:31;95540.06;;;11.75;83.28
29247;BME280;16272;48.188;9.964;2023-04-28T07:10:57;95540.09;;;11.91;82.48
29247;BME280;16272;48.188;9.964;2023-04-28T07:13:22;95541.44;;;11.95;83.13
29247;BME280;16272;48.188;9.964;2023-04-28T07:15:48;95546.03;;;11.77;83.58
29247;BME280;16272;48.188;9.964;2023-04-28T07:18:13;95539.09;;;11.92;83.01
29247;BME280;16272;48.188;9.964;2023-04-28T07:20:39;95533.56;;;11.69;83.56
29247;BME280;16272;48.188;9.964;2023-04-28T07:23:04;95524.41;;;11.80;83.79
29247;BME280;16272;48.188;9.964;2023-04-28T07:25:30;95536.06;;;11.79;83.60
29247;BME280;16272;48.188;9.964;2023-04-28T07:27:56;95539.06;;;11.84;83.31
29247;BME280;16272;48.188;9.964;2023-04-28T07:30:21;95533.28;;;12.05;81.93
29247;BME280;16272;48.188;9.964;2023-04-28T07:32:47;95532.41;;;11.80;83.36
29247;BME280;16272;48.188;9.964;2023-04-28T07:35:12;95530.78;;;12.12;83.02
29247;BME280;16272;48.188;9.964;2023-04-28T07:37:37;95533.44;;;11.95;82.44
29247;BME280;16272;48.188;9.964;2023-04-28T07:40:04;95528.59;;;12.16;81.62
29247;BME280;16272;48.188;9.964;2023-04-28T07:42:30;95521.91;;;12.28;80.51
29247;BME280;16272;48.188;9.964;2023-04-28T07:44:55;95528.47;;;11.92;82.74
29247;BME280;16272;48.188;9.964;2023-04-28T07:47:22;95527.97;;;11.97;82.13
29247;BME280;16272;48.188;9.964;2023-04-28T07:49:48;95516.78;;;12.10;81.34
29247;BME280;16272;48.188;9.964;2023-04-28T07:52:13;95521.59;;;12.31;82.72
29247;BME280;16272;48.188;9.964;2023-04-28T07:54:38;95515.13;;;12.25;81.06
29247;BME280;16272;48.188;9.964;2023-04-28T07:57:03;95510.56;;;12.50;81.89
29247;BME280;16272;48.188;9.964;2023-04-28T07:59:32;95514.44;;;12.40;81.33
29247;BME280;16272;48.188;9.964;2023-04-28T08:01:57;95517.91;;;12.40;81.59
29247;BME280;16272;48.188;9.964;2023-04-28T08:04:22;95522.59;;;12.30;82.05
29247;BME280;16272;48.188;9.964;2023-04-28T08:06:49;95529.50;;;12.64;80.24
29247;BME280;16272;48.188;9.964;2023-04-28T08:09:14;95526.75;;;13.28;77.75
29247;BME280;16272;48.188;9.964;2023-04-28T08:11:39;95525.66;;;12.75;80.18
29247;BME280;16272;48.188;9.964;2023-04-28T08:14:05;95533.38;;;12.53;82.19
29247;BME280;16272;48.188;9.964;2023-04-28T08:16:30;95522.59;;;12.86;82.08
29247;BME280;16272;48.188;9.964;2023-04-28T08:18:56;95527.81;;;12.79;81.35
29247;BME280;16272;48.188;9.964;2023-04-28T08:21:23;95526.88;;;12.95;80.42
29247;BME280;16272;48.188;9.964;2023-04-28T08:23:49;95532.25;;;12.87;80.74
29247;BME280;16272;48.188;9.964;2023-04-28T08:26:14;95522.13;;;13.22;79.26
29247;BME280;16272;48.188;9.964;2023-04-28T08:28:39;95526.28;;;13.16;79.17
29247;BME280;16272;48.188;9.964;2023-04-28T08:31:05;95521.56;;;12.95;81.11
29247;BME280;16272;48.188;9.964;2023-04-28T08:33:30;95529.44;;;13.28;78.16
29247;BME280;16272;48.188;9.964;2023-04-28T08:35:56;95530.75;;;13.24;79.93
29247;BME280;16272;48.188;9.964;2023-04-28T08:38:21;95530.75;;;13.24;79.88
29247;BME280;16272;48.188;9.964;2023-04-28T08:40:48;95527.59;;;12.89;81.51
29247;BME280;16272;48.188;9.964;2023-04-28T08:43:13;95527.25;;;12.92;81.51
29247;BME280;16272;48.188;9.964;2023-04-28T08:45:41;95533.16;;;13.11;80.26
29247;BME280;16272;48.188;9.964;2023-04-28T08:48:17;95522.75;;;12.93;81.36
29247;BME280;16272;48.188;9.964;2023-04-28T08:50:51;95530.16;;;13.14;81.39
29247;BME280;16272;48.188;9.964;2023-04-28T08:53:25;95530.31;;;13.12;82.00
29247;BME280;16272;48.188;9.964;2023-04-28T08:55:56;95528.09;;;13.55;81.18
29247;BME280;16272;48.188;9.964;2023-04-28T08:58:25;95535.34;;;13.70;79.72
29247;BME280;16272;48.188;9.964;2023-04-28T09:00:52;95537.03;;;13.31;81.27
29247;BME280;16272;48.188;9.964;2023-04-28T09:03:19;95529.66;;;13.50;79.91
29247;BME280;16272;48.188;9.964;2023-04-28T09:05:45;95526.00;;;13.42;81.52
29247;BME280;16272;48.188;9.964;2023-04-28T09:08:11;95537.47;;;13.12;83.14
29247;BME280;16272;48.188;9.964;2023-04-28T09:10:37;95539.16;;;13.13;81.01
29247;BME280;16272;48.188;9.964;2023-04-28T09:13:02;95529.09;;;13.23;81.59
29247;BME280;16272;48.188;9.964;2023-04-28T09:15:34;95517.34;;;13.09;81.91
29247;BME280;16272;48.188;9.964;2023-04-28T09:18:06;95523.63;;;13.16;83.25
29247;BME280;16272;48.188;9.964;2023-04-28T09:20:33;95516.13;;;13.20;82.60
29247;BME280;16272;48.188;9.964;2023-04-28T09:23:16;95515.59;;;13.24;81.94
29247;BME280;16272;48.188;9.964;2023-04-28T09:25:55;95514.75;;;13.32;82.23
29247;BME280;16272;48.188;9.964;2023-04-28T09:28:21;95515.03;;;13.37;81.51
29247;BME280;16272;48.188;9.964;2023-04-28T09:30:48;95526.06;;;13.26;83.07
29247;BME280;16272;48.188;9.964;2023-04-28T09:33:14;95524.81;;;13.14;83.12
29247;BME280;16272;48.188;9.964;2023-04-28T09:35:44;95530.06;;;13.85;80.21
29247;BME280;16272;48.188;9.964;2023-04-28T09:38:10;95540.09;;;14.06;80.68
29247;BME280;16272;48.188;9.964;2023-04-28T09:40:58;95540.94;;;13.83;82.16
29247;BME280;16272;48.188;9.964;2023-04-28T09:43:34;95537.50;;;13.74;78.99
29247;BME280;16272;48.188;9.964;2023-04-28T09:46:01;95538.38;;;13.90;80.83
29247;BME280;16272;48.188;9.964;2023-04-28T09:48:29;95547.34;;;13.97;79.43
29247;BME280;16272;48.188;9.964;2023-04-28T09:50:55;95547.19;;;14.37;78.98
29247;BME280;16272;48.188;9.964;2023-04-28T09:53:26;95550.56;;;13.69;81.11
29247;BME280;16272;48.188;9.964;2023-04-28T09:55:54;95563.63;;;13.56;81.81
29247;BME280;16272;48.188;9.964;2023-04-28T09:58:20;95558.81;;;13.20;82.52
29247;BME280;16272;48.188;9.964;2023-04-28T10:00:56;95566.75;;;13.36;83.70
29247;BME280;16272;48.188;9.964;2023-04-28T10:03:26;95567.75;;;13.35;84.61
29247;BME280;16272;48.188;9.964;2023-04-28T10:05:53;95573.63;;;13.54;82.10
29247;BME280;16272;48.188;9.964;2023-04-28T10:08:23;95573.44;;;13.24;84.26
29247;BME280;16272;48.188;9.964;2023-04-28T10:10:49;95572.47;;;13.56;81.64
29247;BME280;16272;48.188;9.964;2023-04-28T10:13:21;95574.06;;;13.34;82.25
29247;BME280;16272;48.188;9.964;2023-04-28T10:15:48;95581.00;;;13.52;83.40
29247;BME280;16272;48.188;9.964;2023-04-28T10:18:14;95572.44;;;13.25;84.44
29247;BME280;16272;48.188;9.964;2023-04-28T10:20:45;95579.44;;;13.57;83.59
29247;BME280;16272;48.188;9.964;2023-04-28T10:23:45;95578.16;;;13.53;84.66
29247;BME280;16272;48.188;9.964;2023-04-28T10:26:15;95580.53;;;13.48;83.42
29247;BME280;16272;48.188;9.964;2023-04-28T10:28:46;95582.28;;;13.56;84.23
29247;BME280;16272;48.188;9.964;2023-04-28T10:31:18;95560.34;;;13.46;85.89
29247;BME280;16272;48.188;9.964;2023-04-28T10:33:48;95572.66;;;13.78;83.02
29247;BME280;16272;48.188;9.964;2023-04-28T10:36:51;95570.34;;;13.98;85.16
29247;BME280;16272;48.188;9.964;2023-04-28T10:39:19;95569.91;;;14.85;80.97
29247;BME280;16272;48.188;9.964;2023-04-28T10:41:45;95567.81;;;14.66;81.95
29247;BME280;16272;48.188;9.964;2023-04-28T10:44:43;95564.47;;;14.64;82.40
29247;BME280;16272;48.188;9.964;2023-04-28T10:47:09;95566.13;;;14.95;81.97
29247;BME280;16272;48.188;9.964;2023-04-28T11:00:42;95559.00;;;15.47;78.23
29247;BME280;16272;48.188;9.964;2023-04-28T11:03:37;95554.16;;;15.05;79.26
29247;BME280;16272;48.188;9.964;2023-04-28T11:06:19;95551.22;;;15.88;77.79
29247;BME280;16272;48.188;9.964;2023-04-28T11:08:48;95555.63;;;15.59;78.02
29247;BME280;16272;48.188;9.964;2023-04-28T11:11:18;95555.69;;;15.30;77.38
29247;BME280;16272;48.188;9.964;2023-04-28T11:13:45;95566.06;;;15.54;78.27
29247;BME280;16272;48.188;9.964;2023-04-28T11:16:15;95565.00;;;15.34;79.08
29247;BME280;16272;48.188;9.964;2023-04-28T11:21:21;95568.53;;;15.19;79.40
29247;BME280;16272;48.188;9.964;2023-04-28T11:23:47;95577.91;;;15.45;78.49
29247;BME280;16272;48.188;9.964;2023-04-28T11:26:13;95571.53;;;15.61;78.38
29247;BME280;16272;48.188;9.964;2023-04-28T11:31:14;95573.69;;;14.76;76.84
29247;BME280;16272;48.188;9.964;2023-04-28T11:33:49;95566.69;;;15.05;77.54
29247;BME280;16272;48.188;9.964;2023-04-28T11:38:52;95571.00;;;15.21;78.53
29247;BME280;16272;48.188;9.964;2023-04-28T11:41:18;95570.78;;;15.52;80.56
29247;BME280;16272;48.188;9.964;2023-04-28T11:43:44;95567.78;;;15.77;77.64
29247;BME280;16272;48.188;9.964;2023-04-28T11:46:09;95564.03;;;15.56;75.36
29247;BME280;16272;48.188;9.964;2023-04-28T11:48:40;95561.69;;;16.05;77.41
29247;BME280;16272;48.188;9.964;2023-04-28T11:51:05;95562.47;;;17.05;77.55
29247;BME280;16272;48.188;9.964;2023-04-28T11:53:44;95563.84;;;17.29;75.77
29247;BME280;16272;48.188;9.964;2023-04-28T11:56:10;95552.84;;;16.82;74.64
29247;BME280;16272;48.188;9.964;2023-04-28T11:58:38;95548.28;;;16.83;75.44
29247;BME280;16272;48.188;9.964;2023-04-28T12:01:10;95557.88;;;16.42;74.97
29247;BME280;16272;48.188;9.964;2023-04-28T12:03:46;95552.19;;;16.52;74.19
29247;BME280;16272;48.188;9.964;2023-04-28T12:06:16;95556.72;;;16.51;71.89
29247;BME280;16272;48.188;9.964;2023-04-28T12:08:43;95543.63;;;17.33;75.68
29247;BME280;16272;48.188;9.964;2023-04-28T12:11:13;95559.44;;;17.63;71.87
29247;BME280;16272;48.188;9.964;2023-04-28T12:13:39;95554.91;;;17.70;71.81
29247;BME280;16272;48.188;9.964;2023-04-28T12:16:06;95558.31;;;16.96;73.74
29247;BME280;16272;48.188;9.964;2023-04-28T12:18:32;95562.50;;;16.83;73.53
29247;BME280;16272;48.188;9.964;2023-04-28T12:20:58;95565.31;;;16.68;72.63
29247;BME280;16272;48.188;9.964;2023-04-28T12:23:34;95560.72;;;16.34;72.57
29247;BME280;16272;48.188;9.964;2023-04-28T12:26:00;95569.28;;;16.72;75.25
29247;BME280;16272;48.188;9.964;2023-04-28T12:28:36;95583.97;;;16.55;72.00
29247;BME280;16272;48.188;9.964;2023-04-28T12:31:07;95580.81;;;16.73;71.65
29247;BME280;16272;48.188;9.964;2023-04-28T12:33:33;95573.78;;;16.44;71.70
29247;BME280;16272;48.188;9.964;2023-04-28T12:36:02;95573.16;;;15.98;75.25
29247;BME280;16272;48.188;9.964;2023-04-28T12:38:29;95577.34;;;16.51;74.13
29247;BME280;16272;48.188;9.964;2023-04-28T12:40:55;95574.56;;;16.16;75.21
29247;BME280;16272;48.188;9.964;2023-04-28T12:43:21;95572.13;;;16.21;75.06
29247;BME280;16272;48.188;9.964;2023-04-28T12:45:52;95571.69;;;16.17;74.98
29247;BME280;16272;48.188;9.964;2023-04-28T12:48:18;95574.25;;;16.04;74.20
29247;BME280;16272;48.188;9.964;2023-04-28T12:50:44;95575.81;;;16.13;74.00
29247;BME280;16272;48.188;9.964;2023-04-28T12:53:10;95575.97;;;15.90;74.84
29247;BME280;16272;48.188;9.964;2023-04-28T12:55:36;95565.78;;;16.01;75.35
29247;BME280;16272;48.188;9.964;2023-04-28T12:58:03;95564.88;;;15.93;75.28
29247;BME280;16272;48.188;9.964;2023-04-28T13:00:28;95567.28;;;16.10;74.72
29247;BME280;16272;48.188;9.964;2023-04-28T13:02:54;95564.03;;;15.56;74.38
29247;BME280;16272;48.188;9.964;2023-04-28T13:05:19;95565.53;;;16.45;74.59
29247;BME280;16272;48.188;9.964;2023-04-28T13:07:44;95557.44;;;16.95;73.38
29247;BME280;16272;48.188;9.964;2023-04-28T13:10:10;95564.88;;;16.37;72.86
29247;BME280;16272;48.188;9.964;2023-04-28T13:12:36;95549.56;;;16.59;72.37
29247;BME280;16272;48.188;9.964;2023-04-28T13:15:02;95549.41;;;16.39;75.33
29247;BME280;16272;48.188;9.964;2023-04-28T13:17:28;95537.81;;;16.88;73.78
29247;BME280;16272;48.188;9.964;2023-04-28T13:19:53;95529.03;;;16.72;73.85